Eldora, Iowa
Current Conditions -  °F | °C
As of 10:15 PM on Thursday 27 Nov 2014 (Local Time) from KIFA Reporting Station
Overcast Overcast  
Wind Chill: -3°   Ceiling: 6000
Heat Index: 10°   Visibility: 10mi
Dew Point:   Wind: 9mph
Humidity: 74%   Direction: 150°SSE
Pressure: 30.32"   Gusts: NA
Location:  42.36°N, 93.1°W
Report Text: KIFA 280415Z AUTO 15008KT 10SM OVC060 M12/M16 A3032 RMK AO2 T11231161
Loading
Personal Weather Stations






























Interactive Weather Map New forecast layout! Learn more

10-Day Weather Forecast

Advertisements
Track Severe Weather on mobile